sensor_id;sensor_type;location;lat;lon;timestamp;temperature;humidity
24162;DHT22;12318;51.262;7.066;2023-05-07T00:02:02;14.40;99.90
24162;DHT22;12318;51.262;7.066;2023-05-07T00:04:30;14.40;99.90
24162;DHT22;12318;51.262;7.066;2023-05-07T00:07:04;14.50;99.90
24162;DHT22;12318;51.262;7.066;2023-05-07T00:09:32;14.50;99.90
24162;DHT22;12318;51.262;7.066;2023-05-07T00:11:58;14.50;99.90
24162;DHT22;12318;51.262;7.066;2023-05-07T00:14:24;14.40;99.90
24162;DHT22;12318;51.262;7.066;2023-05-07T00:17:04;14.40;99.90
24162;DHT22;12318;51.262;7.066;2023-05-07T00:19:36;14.50;99.90
24162;DHT22;12318;51.262;7.066;2023-05-07T00:22:02;14.50;99.90
24162;DHT22;12318;51.262;7.066;2023-05-07T00:24:27;14.50;99.90
24162;DHT22;12318;51.262;7.066;2023-05-07T00:26:55;14.50;99.90
24162;DHT22;12318;51.262;7.066;2023-05-07T00:29:30;14.40;99.90
24162;DHT22;12318;51.262;7.066;2023-05-07T00:31:55;14.40;99.90
24162;DHT22;12318;51.262;7.066;2023-05-07T00:34:24;14.40;99.90
24162;DHT22;12318;51.262;7.066;2023-05-07T00:36:57;14.40;99.90
24162;DHT22;12318;51.262;7.066;2023-05-07T00:39:26;14.40;99.90
24162;DHT22;12318;51.262;7.066;2023-05-07T00:41:52;14.40;99.90
24162;DHT22;12318;51.262;7.066;2023-05-07T00:44:20;14.40;99.90
24162;DHT22;12318;51.262;7.066;2023-05-07T00:46:49;14.40;99.90
24162;DHT22;12318;51.262;7.066;2023-05-07T00:49:19;14.50;99.90
24162;DHT22;12318;51.262;7.066;2023-05-07T00:51:52;14.50;99.90
24162;DHT22;12318;51.262;7.066;2023-05-07T00:54:18;14.50;99.90
24162;DHT22;12318;51.262;7.066;2023-05-07T00:56:49;14.50;99.90
24162;DHT22;12318;51.262;7.066;2023-05-07T00:59:20;14.50;99.90
24162;DHT22;12318;51.262;7.066;2023-05-07T01:01:49;14.50;99.90
24162;DHT22;12318;51.262;7.066;2023-05-07T01:04:17;14.40;99.90
24162;DHT22;12318;51.262;7.066;2023-05-07T01:06:48;14.40;99.90
24162;DHT22;12318;51.262;7.066;2023-05-07T01:09:25;14.40;99.90
24162;DHT22;12318;51.262;7.066;2023-05-07T01:11:52;14.50;99.90
24162;DHT22;12318;51.262;7.066;2023-05-07T01:14:27;14.50;99.90
24162;DHT22;12318;51.262;7.066;2023-05-07T01:16:56;14.60;99.90
24162;DHT22;12318;51.262;7.066;2023-05-07T01:19:28;14.60;99.90
24162;DHT22;12318;51.262;7.066;2023-05-07T01:22:10;14.60;99.90
24162;DHT22;12318;51.262;7.066;2023-05-07T01:25:05;14.80;99.90
24162;DHT22;12318;51.262;7.066;2023-05-07T01:27:31;14.70;99.90
24162;DHT22;12318;51.262;7.066;2023-05-07T01:30:31;14.60;99.90
24162;DHT22;12318;51.262;7.066;2023-05-07T01:33:09;14.70;99.90
24162;DHT22;12318;51.262;7.066;2023-05-07T01:35:38;14.60;99.90
24162;DHT22;12318;51.262;7.066;2023-05-07T01:38:11;14.60;99.90
24162;DHT22;12318;51.262;7.066;2023-05-07T01:40:37;14.70;99.90
24162;DHT22;12318;51.262;7.066;2023-05-07T01:43:04;14.80;99.90
24162;DHT22;12318;51.262;7.066;2023-05-07T01:45:38;14.80;99.90
24162;DHT22;12318;51.262;7.066;2023-05-07T01:48:09;14.60;99.90
24162;DHT22;12318;51.262;7.066;2023-05-07T01:50:43;14.60;99.90
24162;DHT22;12318;51.262;7.066;2023-05-07T01:53:11;14.50;99.90
24162;DHT22;12318;51.262;7.066;2023-05-07T01:55:37;14.30;99.90
24162;DHT22;12318;51.262;7.066;2023-05-07T01:58:06;14.20;99.90
24162;DHT22;12318;51.262;7.066;2023-05-07T02:00:34;14.20;99.90
24162;DHT22;12318;51.262;7.066;2023-05-07T02:03:09;14.20;99.90
24162;DHT22;12318;51.262;7.066;2023-05-07T02:05:40;14.20;99.90
24162;DHT22;12318;51.262;7.066;2023-05-07T02:08:08;14.40;99.90
24162;DHT22;12318;51.262;7.066;2023-05-07T02:10:37;14.30;99.90
24162;DHT22;12318;51.262;7.066;2023-05-07T02:13:05;14.20;99.90
24162;DHT22;12318;51.262;7.066;2023-05-07T02:15:33;14.20;99.90
24162;DHT22;12318;51.262;7.066;2023-05-07T02:18:13;14.20;99.90
24162;DHT22;12318;51.262;7.066;2023-05-07T02:20:47;14.10;99.90
24162;DHT22;12318;51.262;7.066;2023-05-07T02:23:14;14.20;99.90
24162;DHT22;12318;51.262;7.066;2023-05-07T02:25:40;14.20;99.90
24162;DHT22;12318;51.262;7.066;2023-05-07T02:28:17;14.20;99.90
24162;DHT22;12318;51.262;7.066;2023-05-07T02:30:43;14.20;99.90
24162;DHT22;12318;51.262;7.066;2023-05-07T02:33:09;14.20;99.90
24162;DHT22;12318;51.262;7.066;2023-05-07T02:35:38;14.10;99.90
24162;DHT22;12318;51.262;7.066;2023-05-07T02:38:03;14.10;99.90
24162;DHT22;12318;51.262;7.066;2023-05-07T02:40:32;14.10;99.90
24162;DHT22;12318;51.262;7.066;2023-05-07T02:43:04;14.10;99.90
24162;DHT22;12318;51.262;7.066;2023-05-07T02:45:30;14.10;99.90
24162;DHT22;12318;51.262;7.066;2023-05-07T02:47:58;14.20;99.90
24162;DHT22;12318;51.262;7.066;2023-05-07T02:50:29;14.10;99.90
24162;DHT22;12318;51.262;7.066;2023-05-07T02:52:55;14.10;99.90
24162;DHT22;12318;51.262;7.066;2023-05-07T02:55:21;14.10;99.90
24162;DHT22;12318;51.262;7.066;2023-05-07T02:57:49;14.10;99.90
24162;DHT22;12318;51.262;7.066;2023-05-07T03:00:22;14.10;99.90
24162;DHT22;12318;51.262;7.066;2023-05-07T03:02:48;14.10;99.90
24162;DHT22;12318;51.262;7.066;2023-05-07T03:05:14;14.00;99.90
24162;DHT22;12318;51.262;7.066;2023-05-07T03:07:41;14.00;99.90
24162;DHT22;12318;51.262;7.066;2023-05-07T03:10:11;13.90;99.90
24162;DHT22;12318;51.262;7.066;2023-05-07T03:12:40;13.90;99.90
24162;DHT22;12318;51.262;7.066;2023-05-07T03:15:09;14.00;99.90
24162;DHT22;12318;51.262;7.066;2023-05-07T03:17:40;13.90;99.90
24162;DHT22;12318;51.262;7.066;2023-05-07T03:20:07;13.90;99.90
24162;DHT22;12318;51.262;7.066;2023-05-07T03:22:36;14.00;99.90
24162;DHT22;12318;51.262;7.066;2023-05-07T03:25:05;14.10;99.90
24162;DHT22;12318;51.262;7.066;2023-05-07T03:27:31;14.00;99.90
24162;DHT22;12318;51.262;7.066;2023-05-07T03:29:57;14.10;99.90
24162;DHT22;12318;51.262;7.066;2023-05-07T03:32:36;14.20;99.90
24162;DHT22;12318;51.262;7.066;2023-05-07T03:35:05;14.30;99.90
24162;DHT22;12318;51.262;7.066;2023-05-07T03:37:37;14.20;99.90
24162;DHT22;12318;51.262;7.066;2023-05-07T03:40:03;14.30;99.90
24162;DHT22;12318;51.262;7.066;2023-05-07T03:42:36;14.40;99.90
24162;DHT22;12318;51.262;7.066;2023-05-07T03:45:03;14.30;99.90
24162;DHT22;12318;51.262;7.066;2023-05-07T03:47:28;14.50;99.90
24162;DHT22;12318;51.262;7.066;2023-05-07T03:49:57;14.40;99.90
24162;DHT22;12318;51.262;7.066;2023-05-07T03:52:23;14.30;99.90
24162;DHT22;12318;51.262;7.066;2023-05-07T03:54:56;14.20;99.90
24162;DHT22;12318;51.262;7.066;2023-05-07T03:57:24;14.10;99.90
24162;DHT22;12318;51.262;7.066;2023-05-07T03:59:53;14.10;99.90
24162;DHT22;12318;51.262;7.066;2023-05-07T04:02:23;14.10;99.90
24162;DHT22;12318;51.262;7.066;2023-05-07T04:04:49;14.00;99.90
24162;DHT22;12318;51.262;7.066;2023-05-07T04:07:15;14.00;99.90
24162;DHT22;12318;51.262;7.066;2023-05-07T04:09:43;14.00;99.90
24162;DHT22;12318;51.262;7.066;2023-05-07T04:12:17;13.90;99.90
24162;DHT22;12318;51.262;7.066;2023-05-07T04:14:46;13.80;99.90
24162;DHT22;12318;51.262;7.066;2023-05-07T04:17:12;13.60;99.90
24162;DHT22;12318;51.262;7.066;2023-05-07T04:19:46;13.60;99.90
24162;DHT22;12318;51.262;7.066;2023-05-07T04:22:14;13.60;99.90
24162;DHT22;12318;51.262;7.066;2023-05-07T04:24:42;13.60;99.90
24162;DHT22;12318;51.262;7.066;2023-05-07T04:27:09;13.70;99.90
24162;DHT22;12318;51.262;7.066;2023-05-07T04:29:37;13.60;99.90
24162;DHT22;12318;51.262;7.066;2023-05-07T04:32:06;13.70;99.90
24162;DHT22;12318;51.262;7.066;2023-05-07T04:34:32;13.80;99.90
24162;DHT22;12318;51.262;7.066;2023-05-07T04:37:06;13.80;99.90
24162;DHT22;12318;51.262;7.066;2023-05-07T04:39:32;13.70;99.90
24162;DHT22;12318;51.262;7.066;2023-05-07T04:42:03;13.80;99.90
24162;DHT22;12318;51.262;7.066;2023-05-07T04:44:29;13.70;99.90
24162;DHT22;12318;51.262;7.066;2023-05-07T04:46:59;13.70;99.90
24162;DHT22;12318;51.262;7.066;2023-05-07T04:49:28;13.60;99.90
24162;DHT22;12318;51.262;7.066;2023-05-07T04:51:56;13.60;99.90
24162;DHT22;12318;51.262;7.066;2023-05-07T04:54:24;13.60;99.90
24162;DHT22;12318;51.262;7.066;2023-05-07T04:56:53;13.80;99.90
24162;DHT22;12318;51.262;7.066;2023-05-07T04:59:24;13.90;99.90
24162;DHT22;12318;51.262;7.066;2023-05-07T05:01:59;14.10;99.90
24162;DHT22;12318;51.262;7.066;2023-05-07T05:04:26;14.30;99.90
24162;DHT22;12318;51.262;7.066;2023-05-07T05:06:54;14.50;99.90
24162;DHT22;12318;51.262;7.066;2023-05-07T05:09:20;14.60;99.90
24162;DHT22;12318;51.262;7.066;2023-05-07T05:11:50;14.60;99.90
24162;DHT22;12318;51.262;7.066;2023-05-07T05:14:24;14.50;99.90
24162;DHT22;12318;51.262;7.066;2023-05-07T05:16:57;14.40;99.90
24162;DHT22;12318;51.262;7.066;2023-05-07T05:19:24;14.40;99.90
24162;DHT22;12318;51.262;7.066;2023-05-07T05:21:52;14.60;99.90
24162;DHT22;12318;51.262;7.066;2023-05-07T05:24:22;14.70;99.90
24162;DHT22;12318;51.262;7.066;2023-05-07T05:26:53;14.60;99.90
24162;DHT22;12318;51.262;7.066;2023-05-07T05:29:21;14.70;99.90
24162;DHT22;12318;51.262;7.066;2023-05-07T05:31:49;14.80;99.90
24162;DHT22;12318;51.262;7.066;2023-05-07T05:34:20;14.90;99.90
24162;DHT22;12318;51.262;7.066;2023-05-07T05:36:48;14.90;99.90
24162;DHT22;12318;51.262;7.066;2023-05-07T05:39:14;15.10;99.90
24162;DHT22;12318;51.262;7.066;2023-05-07T05:41:46;15.10;99.90
24162;DHT22;12318;51.262;7.066;2023-05-07T05:44:12;15.30;99.90
24162;DHT22;12318;51.262;7.066;2023-05-07T05:46:38;15.50;99.90
24162;DHT22;12318;51.262;7.066;2023-05-07T05:49:07;15.60;99.90
24162;DHT22;12318;51.262;7.066;2023-05-07T05:51:36;15.60;99.90
24162;DHT22;12318;51.262;7.066;2023-05-07T05:54:12;15.70;99.90
24162;DHT22;12318;51.262;7.066;2023-05-07T05:56:45;15.80;99.90
24162;DHT22;12318;51.262;7.066;2023-05-07T05:59:13;16.10;99.90
24162;DHT22;12318;51.262;7.066;2023-05-07T06:01:39;16.20;99.90
24162;DHT22;12318;51.262;7.066;2023-05-07T06:04:05;16.10;99.90
24162;DHT22;12318;51.262;7.066;2023-05-07T06:06:31;16.20;99.90
24162;DHT22;12318;51.262;7.066;2023-05-07T06:08:57;16.10;99.90
24162;DHT22;12318;51.262;7.066;2023-05-07T06:11:27;16.00;99.90
24162;DHT22;12318;51.262;7.066;2023-05-07T06:14:03;16.20;99.90
24162;DHT22;12318;51.262;7.066;2023-05-07T06:16:31;16.10;99.90
24162;DHT22;12318;51.262;7.066;2023-05-07T06:19:07;16.20;99.90
24162;DHT22;12318;51.262;7.066;2023-05-07T06:21:35;16.30;99.90
24162;DHT22;12318;51.262;7.066;2023-05-07T06:24:01;16.20;99.90
24162;DHT22;12318;51.262;7.066;2023-05-07T06:26:28;16.10;99.90
24162;DHT22;12318;51.262;7.066;2023-05-07T06:28:57;16.00;99.90
24162;DHT22;12318;51.262;7.066;2023-05-07T06:31:29;16.20;99.90
24162;DHT22;12318;51.262;7.066;2023-05-07T06:33:56;16.30;99.90
24162;DHT22;12318;51.262;7.066;2023-05-07T06:36:22;16.20;99.90
24162;DHT22;12318;51.262;7.066;2023-05-07T06:38:48;16.40;99.90
24162;DHT22;12318;51.262;7.066;2023-05-07T06:41:14;16.40;99.90
24162;DHT22;12318;51.262;7.066;2023-05-07T06:43:42;16.20;99.90
24162;DHT22;12318;51.262;7.066;2023-05-07T06:46:13;16.40;99.90
24162;DHT22;12318;51.262;7.066;2023-05-07T06:48:43;16.40;99.90
24162;DHT22;12318;51.262;7.066;2023-05-07T06:51:12;16.60;99.90
24162;DHT22;12318;51.262;7.066;2023-05-07T06:53:42;16.90;99.90
24162;DHT22;12318;51.262;7.066;2023-05-07T06:56:14;17.00;99.90
24162;DHT22;12318;51.262;7.066;2023-05-07T06:58:40;17.10;99.90
24162;DHT22;12318;51.262;7.066;2023-05-07T07:01:05;16.80;99.90
24162;DHT22;12318;51.262;7.066;2023-05-07T07:03:34;16.80;99.90
24162;DHT22;12318;51.262;7.066;2023-05-07T07:06:10;16.70;99.90
24162;DHT22;12318;51.262;7.066;2023-05-07T07:08:36;16.60;99.90
24162;DHT22;12318;51.262;7.066;2023-05-07T07:11:04;16.70;99.90
24162;DHT22;12318;51.262;7.066;2023-05-07T07:13:36;16.90;99.90
24162;DHT22;12318;51.262;7.066;2023-05-07T07:16:08;17.10;99.90
24162;DHT22;12318;51.262;7.066;2023-05-07T07:18:45;17.00;99.90
24162;DHT22;12318;51.262;7.066;2023-05-07T07:21:11;17.00;99.90
24162;DHT22;12318;51.262;7.066;2023-05-07T07:23:39;17.00;99.90
24162;DHT22;12318;51.262;7.066;2023-05-07T07:26:06;17.10;99.90
24162;DHT22;12318;51.262;7.066;2023-05-07T07:28:42;17.30;99.90
24162;DHT22;12318;51.262;7.066;2023-05-07T07:31:12;17.20;99.90
24162;DHT22;12318;51.262;7.066;2023-05-07T07:33:38;17.30;99.90
24162;DHT22;12318;51.262;7.066;2023-05-07T07:36:05;17.30;99.90
24162;DHT22;12318;51.262;7.066;2023-05-07T07:38:32;17.40;99.90
24162;DHT22;12318;51.262;7.066;2023-05-07T07:40:58;17.20;99.90
24162;DHT22;12318;51.262;7.066;2023-05-07T07:43:24;17.50;99.90
24162;DHT22;12318;51.262;7.066;2023-05-07T07:45:50;17.70;99.90
24162;DHT22;12318;51.262;7.066;2023-05-07T07:48:15;17.80;99.90
24162;DHT22;12318;51.262;7.066;2023-05-07T07:50:43;17.90;99.90
24162;DHT22;12318;51.262;7.066;2023-05-07T07:53:09;17.90;97.60
24162;DHT22;12318;51.262;7.066;2023-05-07T07:55:39;17.70;97.20
24162;DHT22;12318;51.262;7.066;2023-05-07T07:58:05;17.80;98.10
24162;DHT22;12318;51.262;7.066;2023-05-07T08:00:31;18.20;97.70
24162;DHT22;12318;51.262;7.066;2023-05-07T08:02:56;18.20;96.60
24162;DHT22;12318;51.262;7.066;2023-05-07T08:05:23;18.10;95.90
24162;DHT22;12318;51.262;7.066;2023-05-07T08:07:49;18.20;96.30
24162;DHT22;12318;51.262;7.066;2023-05-07T08:10:19;18.10;95.40
24162;DHT22;12318;51.262;7.066;2023-05-07T08:12:50;18.20;95.50
24162;DHT22;12318;51.262;7.066;2023-05-07T08:15:17;18.30;96.00
24162;DHT22;12318;51.262;7.066;2023-05-07T08:17:43;18.20;95.50
24162;DHT22;12318;51.262;7.066;2023-05-07T08:20:12;18.20;95.00
24162;DHT22;12318;51.262;7.066;2023-05-07T08:22:38;18.30;94.90
24162;DHT22;12318;51.262;7.066;2023-05-07T08:25:06;18.50;94.20
24162;DHT22;12318;51.262;7.066;2023-05-07T08:27:32;18.50;93.50
24162;DHT22;12318;51.262;7.066;2023-05-07T08:29:58;18.70;93.40
24162;DHT22;12318;51.262;7.066;2023-05-07T08:32:26;18.90;93.60
24162;DHT22;12318;51.262;7.066;2023-05-07T08:34:53;19.10;93.20
24162;DHT22;12318;51.262;7.066;2023-05-07T08:37:19;19.10;91.50
24162;DHT22;12318;51.262;7.066;2023-05-07T08:39:45;19.20;91.90
24162;DHT22;12318;51.262;7.066;2023-05-07T08:42:11;19.30;91.90
24162;DHT22;12318;51.262;7.066;2023-05-07T08:44:38;19.30;90.70
24162;DHT22;12318;51.262;7.066;2023-05-07T08:47:06;19.40;90.50
24162;DHT22;12318;51.262;7.066;2023-05-07T08:49:34;19.60;90.80
24162;DHT22;12318;51.262;7.066;2023-05-07T08:52:00;19.40;87.10
24162;DHT22;12318;51.262;7.066;2023-05-07T08:54:27;19.30;87.30
24162;DHT22;12318;51.262;7.066;2023-05-07T08:56:54;19.60;88.30
24162;DHT22;12318;51.262;7.066;2023-05-07T08:59:20;19.90;85.30
24162;DHT22;12318;51.262;7.066;2023-05-07T09:01:46;20.00;83.40
24162;DHT22;12318;51.262;7.066;2023-05-07T09:04:12;19.90;82.10
24162;DHT22;12318;51.262;7.066;2023-05-07T09:06:39;19.90;82.80
24162;DHT22;12318;51.262;7.066;2023-05-07T09:09:07;20.20;81.20
24162;DHT22;12318;51.262;7.066;2023-05-07T09:11:36;20.40;79.20
24162;DHT22;12318;51.262;7.066;2023-05-07T09:14:04;20.30;80.80
24162;DHT22;12318;51.262;7.066;2023-05-07T09:16:30;20.10;78.90
24162;DHT22;12318;51.262;7.066;2023-05-07T09:18:58;20.10;78.80
24162;DHT22;12318;51.262;7.066;2023-05-07T09:21:24;19.90;77.40
24162;DHT22;12318;51.262;7.066;2023-05-07T09:23:54;20.10;76.30
24162;DHT22;12318;51.262;7.066;2023-05-07T09:26:28;20.40;77.90
24162;DHT22;12318;51.262;7.066;2023-05-07T09:28:54;20.50;82.20
24162;DHT22;12318;51.262;7.066;2023-05-07T09:31:25;20.40;76.90
24162;DHT22;12318;51.262;7.066;2023-05-07T09:33:59;20.00;76.40
24162;DHT22;12318;51.262;7.066;2023-05-07T09:39:06;20.30;75.20
24162;DHT22;12318;51.262;7.066;2023-05-07T09:41:32;20.50;74.50
24162;DHT22;12318;51.262;7.066;2023-05-07T09:43:58;20.80;73.40
24162;DHT22;12318;51.262;7.066;2023-05-07T09:46:31;20.60;72.10
24162;DHT22;12318;51.262;7.066;2023-05-07T09:49:01;20.80;72.10
24162;DHT22;12318;51.262;7.066;2023-05-07T09:51:48;20.90;73.00
24162;DHT22;12318;51.262;7.066;2023-05-07T09:54:15;20.80;70.70
24162;DHT22;12318;51.262;7.066;2023-05-07T09:56:43;21.10;69.60
24162;DHT22;12318;51.262;7.066;2023-05-07T09:59:14;21.20;68.20
24162;DHT22;12318;51.262;7.066;2023-05-07T10:01:42;21.00;67.70
24162;DHT22;12318;51.262;7.066;2023-05-07T10:04:09;21.00;74.40
24162;DHT22;12318;51.262;7.066;2023-05-07T10:06:36;21.10;72.10
24162;DHT22;12318;51.262;7.066;2023-05-07T10:09:04;21.00;71.80
24162;DHT22;12318;51.262;7.066;2023-05-07T10:11:33;20.90;75.80
24162;DHT22;12318;51.262;7.066;2023-05-07T10:14:00;21.00;73.10
24162;DHT22;12318;51.262;7.066;2023-05-07T10:16:34;21.10;70.90
24162;DHT22;12318;51.262;7.066;2023-05-07T10:19:06;21.50;73.10
24162;DHT22;12318;51.262;7.066;2023-05-07T10:21:54;21.40;72.50
24162;DHT22;12318;51.262;7.066;2023-05-07T10:24:26;21.10;78.30
24162;DHT22;12318;51.262;7.066;2023-05-07T10:26:55;20.80;80.80
24162;DHT22;12318;51.262;7.066;2023-05-07T10:29:37;20.80;78.90
24162;DHT22;12318;51.262;7.066;2023-05-07T10:35:18;21.10;73.60
24162;DHT22;12318;51.262;7.066;2023-05-07T10:37:48;21.20;71.80
24162;DHT22;12318;51.262;7.066;2023-05-07T10:40:15;20.90;74.30
24162;DHT22;12318;51.262;7.066;2023-05-07T10:42:56;20.80;72.00
24162;DHT22;12318;51.262;7.066;2023-05-07T10:45:23;21.00;73.20
24162;DHT22;12318;51.262;7.066;2023-05-07T10:48:17;21.10;71.70
24162;DHT22;12318;51.262;7.066;2023-05-07T10:50:44;21.30;69.70
24162;DHT22;12318;51.262;7.066;2023-05-07T10:58:42;21.50;65.30
24162;DHT22;12318;51.262;7.066;2023-05-07T11:01:08;21.50;70.40
24162;DHT22;12318;51.262;7.066;2023-05-07T11:03:33;21.30;75.60
24162;DHT22;12318;51.262;7.066;2023-05-07T11:06:16;21.10;71.30
24162;DHT22;12318;51.262;7.066;2023-05-07T11:09:00;21.20;71.30
24162;DHT22;12318;51.262;7.066;2023-05-07T11:11:45;21.20;70.10
24162;DHT22;12318;51.262;7.066;2023-05-07T11:14:11;21.30;70.30
24162;DHT22;12318;51.262;7.066;2023-05-07T11:16:37;21.50;73.20
24162;DHT22;12318;51.262;7.066;2023-05-07T11:19:04;21.50;73.80
24162;DHT22;12318;51.262;7.066;2023-05-07T11:21:38;21.40;75.50
24162;DHT22;12318;51.262;7.066;2023-05-07T11:24:08;21.40;75.10
24162;DHT22;12318;51.262;7.066;2023-05-07T11:26:46;21.50;73.80
24162;DHT22;12318;51.262;7.066;2023-05-07T11:29:22;21.50;73.30
24162;DHT22;12318;51.262;7.066;2023-05-07T11:31:49;21.40;72.90
24162;DHT22;12318;51.262;7.066;2023-05-07T11:34:21;21.50;73.80
24162;DHT22;12318;51.262;7.066;2023-05-07T11:36:47;21.40;76.60
24162;DHT22;12318;51.262;7.066;2023-05-07T11:39:28;21.30;75.90
24162;DHT22;12318;51.262;7.066;2023-05-07T11:41:54;21.40;79.20
24162;DHT22;12318;51.262;7.066;2023-05-07T11:44:20;21.50;79.10
24162;DHT22;12318;51.262;7.066;2023-05-07T11:46:46;21.40;76.20
24162;DHT22;12318;51.262;7.066;2023-05-07T11:49:12;21.30;77.70
24162;DHT22;12318;51.262;7.066;2023-05-07T11:51:39;21.30;79.90
24162;DHT22;12318;51.262;7.066;2023-05-07T11:54:05;21.20;78.10
24162;DHT22;12318;51.262;7.066;2023-05-07T11:56:35;20.80;80.50
24162;DHT22;12318;51.262;7.066;2023-05-07T11:59:01;20.40;82.50
24162;DHT22;12318;51.262;7.066;2023-05-07T12:01:27;20.50;80.80
24162;DHT22;12318;51.262;7.066;2023-05-07T12:03:52;20.30;82.80
24162;DHT22;12318;51.262;7.066;2023-05-07T12:06:19;20.20;84.10
24162;DHT22;12318;51.262;7.066;2023-05-07T12:08:46;20.20;81.90
24162;DHT22;12318;51.262;7.066;2023-05-07T12:11:16;20.10;81.50
24162;DHT22;12318;51.262;7.066;2023-05-07T12:13:47;20.00;81.70
24162;DHT22;12318;51.262;7.066;2023-05-07T12:16:13;20.00;82.00
24162;DHT22;12318;51.262;7.066;2023-05-07T12:18:40;20.10;81.40
24162;DHT22;12318;51.262;7.066;2023-05-07T12:21:06;20.10;83.00
24162;DHT22;12318;51.262;7.066;2023-05-07T12:23:34;20.00;82.60
24162;DHT22;12318;51.262;7.066;2023-05-07T12:26:00;20.00;82.20
24162;DHT22;12318;51.262;7.066;2023-05-07T12:28:26;19.80;81.20
24162;DHT22;12318;51.262;7.066;2023-05-07T12:30:52;19.90;82.10
24162;DHT22;12318;51.262;7.066;2023-05-07T12:33:19;20.10;82.50
24162;DHT22;12318;51.262;7.066;2023-05-07T12:35:49;20.00;81.70
24162;DHT22;12318;51.262;7.066;2023-05-07T12:38:16;20.10;81.10
24162;DHT22;12318;51.262;7.066;2023-05-07T12:40:46;20.40;80.90
24162;DHT22;12318;51.262;7.066;2023-05-07T12:43:32;20.40;80.00
24162;DHT22;12318;51.262;7.066;2023-05-07T12:46:01;20.20;80.50
24162;DHT22;12318;51.262;7.066;2023-05-07T12:48:28;20.00;81.70
24162;DHT22;12318;51.262;7.066;2023-05-07T12:50:55;19.90;82.70
24162;DHT22;12318;51.262;7.066;2023-05-07T12:53:23;19.90;83.80
24162;DHT22;12318;51.262;7.066;2023-05-07T12:55:55;19.90;83.30
24162;DHT22;12318;51.262;7.066;2023-05-07T12:58:28;19.80;84.60
24162;DHT22;12318;51.262;7.066;2023-05-07T13:00:55;19.80;87.20
24162;DHT22;12318;51.262;7.066;2023-05-07T13:03:28;19.80;89.90
24162;DHT22;12318;51.262;7.066;2023-05-07T13:06:02;19.80;90.80
24162;DHT22;12318;51.262;7.066;2023-05-07T13:10:57;19.90;90.10
24162;DHT22;12318;51.262;7.066;2023-05-07T13:13:22;19.80;90.30
24162;DHT22;12318;51.262;7.066;2023-05-07T13:15:48;19.70;90.60
24162;DHT22;12318;51.262;7.066;2023-05-07T13:18:14;19.70;91.00
24162;DHT22;12318;51.262;7.066;2023-05-07T13:20:40;19.70;90.80
24162;DHT22;12318;51.262;7.066;2023-05-07T13:23:06;19.60;92.10
24162;DHT22;12318;51.262;7.066;2023-05-07T13:25:32;19.70;92.40
24162;DHT22;12318;51.262;7.066;2023-05-07T13:27:58;19.50;92.50
24162;DHT22;12318;51.262;7.066;2023-05-07T13:30:23;19.40;93.80
24162;DHT22;12318;51.262;7.066;2023-05-07T13:32:49;19.20;94.70
24162;DHT22;12318;51.262;7.066;2023-05-07T13:35:16;19.20;95.20
24162;DHT22;12318;51.262;7.066;2023-05-07T13:37:42;19.20;95.20
24162;DHT22;12318;51.262;7.066;2023-05-07T13:40:08;19.30;94.50
24162;DHT22;12318;51.262;7.066;2023-05-07T13:42:34;19.30;94.50
24162;DHT22;12318;51.262;7.066;2023-05-07T13:45:00;19.30;94.70
24162;DHT22;12318;51.262;7.066;2023-05-07T13:47:26;19.10;93.30
24162;DHT22;12318;51.262;7.066;2023-05-07T13:49:52;19.10;92.10
24162;DHT22;12318;51.262;7.066;2023-05-07T13:52:19;18.80;91.70
24162;DHT22;12318;51.262;7.066;2023-05-07T13:54:45;18.90;92.10
24162;DHT22;12318;51.262;7.066;2023-05-07T13:57:11;18.80;92.60
24162;DHT22;12318;51.262;7.066;2023-05-07T13:59:37;18.80;93.60
24162;DHT22;12318;51.262;7.066;2023-05-07T14:02:03;18.70;94.10
24162;DHT22;12318;51.262;7.066;2023-05-07T14:04:30;18.80;95.70
24162;DHT22;12318;51.262;7.066;2023-05-07T14:06:57;18.90;96.30
24162;DHT22;12318;51.262;7.066;2023-05-07T14:09:23;18.80;96.80
24162;DHT22;12318;51.262;7.066;2023-05-07T14:11:48;18.70;97.10
24162;DHT22;12318;51.262;7.066;2023-05-07T14:14:17;18.50;96.60
24162;DHT22;12318;51.262;7.066;2023-05-07T14:16:44;18.70;97.00
24162;DHT22;12318;51.262;7.066;2023-05-07T14:19:10;18.60;95.30
24162;DHT22;12318;51.262;7.066;2023-05-07T14:21:36;18.50;95.60
24162;DHT22;12318;51.262;7.066;2023-05-07T14:24:02;18.20;98.10
24162;DHT22;12318;51.262;7.066;2023-05-07T14:26:28;18.10;99.90
24162;DHT22;12318;51.262;7.066;2023-05-07T14:28:55;18.00;99.90
24162;DHT22;12318;51.262;7.066;2023-05-07T14:31:22;17.90;99.90
24162;DHT22;12318;51.262;7.066;2023-05-07T14:33:48;17.90;99.90
24162;DHT22;12318;51.262;7.066;2023-05-07T14:36:16;17.80;99.90
24162;DHT22;12318;51.262;7.066;2023-05-07T14:38:42;17.80;99.90
24162;DHT22;12318;51.262;7.066;2023-05-07T14:41:08;17.70;99.90
24162;DHT22;12318;51.262;7.066;2023-05-07T14:43:34;17.70;99.90
24162;DHT22;12318;51.262;7.066;2023-05-07T14:46:02;17.70;99.90
24162;DHT22;12318;51.262;7.066;2023-05-07T14:48:29;17.70;99.90
24162;DHT22;12318;51.262;7.066;2023-05-07T14:50:54;17.80;99.90
24162;DHT22;12318;51.262;7.066;2023-05-07T14:53:21;17.80;99.90
24162;DHT22;12318;51.262;7.066;2023-05-07T14:55:47;17.80;99.90
24162;DHT22;12318;51.262;7.066;2023-05-07T14:58:13;17.80;99.90
24162;DHT22;12318;51.262;7.066;2023-05-07T15:00:39;17.70;99.90
24162;DHT22;12318;51.262;7.066;2023-05-07T15:03:07;17.40;99.90
24162;DHT22;12318;51.262;7.066;2023-05-07T15:05:33;17.50;99.90
24162;DHT22;12318;51.262;7.066;2023-05-07T15:08:00;17.30;99.90
24162;DHT22;12318;51.262;7.066;2023-05-07T15:10:26;17.40;99.90
24162;DHT22;12318;51.262;7.066;2023-05-07T15:12:52;17.30;99.90
24162;DHT22;12318;51.262;7.066;2023-05-07T15:15:17;17.40;99.90
24162;DHT22;12318;51.262;7.066;2023-05-07T15:17:43;17.30;99.90
24162;DHT22;12318;51.262;7.066;2023-05-07T15:20:09;17.30;99.90
24162;DHT22;12318;51.262;7.066;2023-05-07T15:22:35;17.30;99.90
24162;DHT22;12318;51.262;7.066;2023-05-07T15:25:03;17.40;99.90
24162;DHT22;12318;51.262;7.066;2023-05-07T15:27:30;17.30;99.90
24162;DHT22;12318;51.262;7.066;2023-05-07T15:29:56;17.30;99.90
24162;DHT22;12318;51.262;7.066;2023-05-07T15:32:22;17.40;99.90
24162;DHT22;12318;51.262;7.066;2023-05-07T15:34:48;17.30;99.90
24162;DHT22;12318;51.262;7.066;2023-05-07T15:37:14;17.10;99.90
24162;DHT22;12318;51.262;7.066;2023-05-07T15:39:39;17.00;99.90
24162;DHT22;12318;51.262;7.066;2023-05-07T15:42:05;16.90;99.90
24162;DHT22;12318;51.262;7.066;2023-05-07T15:44:31;16.90;99.90
24162;DHT22;12318;51.262;7.066;2023-05-07T15:46:59;16.70;99.90
24162;DHT22;12318;51.262;7.066;2023-05-07T15:49:25;16.80;99.90
24162;DHT22;12318;51.262;7.066;2023-05-07T15:51:51;16.90;99.90
24162;DHT22;12318;51.262;7.066;2023-05-07T15:54:19;16.90;99.90